Time;durP1;ratioP1;P1;durP2;ratioP2;P2;SDS_P1;SDS_P2;PMS_P1;PMS_P2;Temp;Humidity;BMP_temperature;BMP_pressure;BME280_temperature;BME280_humidity;BME280_pressure;Samples;Min_cycle;Max_cycle;Signal;HPM_P1;HPM_P2
2021/03/09 00:00:51;;;;;;;10.40;8.88;;;;;;;;;;4972568;28;20035;-73
2021/03/09 00:03:16;;;;;;;9.30;8.30;;;;;;;;;;4956623;28;20035;-73
2021/03/09 00:05:42;;;;;;;9.77;8.60;;;;;;;;;;4988489;28;20038;-74
2021/03/09 00:08:07;;;;;;;10.35;8.48;;;;;;;;;;4973497;28;20104;-74
2021/03/09 00:10:32;;;;;;;10.15;8.18;;;;;;;;;;4956255;28;20049;-74
2021/03/09 00:12:58;;;;;;;10.90;8.52;;;;;;;;;;4958363;28;20390;-74
2021/03/09 00:15:23;;;;;;;9.25;8.30;;;;;;;;;;5024450;28;20042;-74
2021/03/09 00:17:49;;;;;;;9.32;8.18;;;;;;;;;;4991898;28;20468;-73
2021/03/09 00:20:15;;;;;;;10.23;8.25;;;;;;;;;;4990862;28;20062;-74
2021/03/09 00:22:40;;;;;;;10.25;7.80;;;;;;;;;;5008166;28;20102;-74
2021/03/09 00:25:06;;;;;;;10.02;8.85;;;;;;;;;;4975434;28;20582;-74
2021/03/09 00:27:32;;;;;;;9.77;8.10;;;;;;;;;;4992526;28;20113;-73
2021/03/09 00:29:57;;;;;;;9.60;8.55;;;;;;;;;;5007898;28;20038;-74
2021/03/09 00:32:22;;;;;;;12.20;8.35;;;;;;;;;;4993301;28;20054;-73
2021/03/09 00:34:48;;;;;;;9.77;8.43;;;;;;;;;;5007426;28;20094;-74
2021/03/09 00:37:13;;;;;;;10.68;8.27;;;;;;;;;;5007619;28;20491;-74
2021/03/09 00:39:39;;;;;;;10.82;8.98;;;;;;;;;;5024039;28;20046;-74
2021/03/09 00:42:04;;;;;;;10.18;8.75;;;;;;;;;;5007730;28;20404;-73
2021/03/09 00:44:32;;;;;;;11.80;9.15;;;;;;;;;;4972495;28;20059;-74
2021/03/09 00:46:58;;;;;;;11.23;8.55;;;;;;;;;;4988303;28;20121;-74
2021/03/09 00:49:23;;;;;;;9.63;8.35;;;;;;;;;;4972376;28;20751;-73
2021/03/09 00:51:49;;;;;;;10.50;8.52;;;;;;;;;;4987753;28;20601;-74
2021/03/09 00:54:14;;;;;;;10.73;8.65;;;;;;;;;;5004187;28;20043;-74
2021/03/09 00:56:39;;;;;;;11.07;8.32;;;;;;;;;;4987723;28;20039;-74
2021/03/09 00:59:05;;;;;;;10.65;8.30;;;;;;;;;;5004283;28;20457;-74
2021/03/09 01:01:30;;;;;;;11.27;8.85;;;;;;;;;;5003795;28;20062;-73
2021/03/09 01:03:56;;;;;;;9.30;8.07;;;;;;;;;;5004123;28;20409;-74
2021/03/09 01:06:21;;;;;;;9.93;8.43;;;;;;;;;;5004011;28;20405;-74
2021/03/09 01:08:47;;;;;;;9.65;7.65;;;;;;;;;;5004039;28;20043;-74
2021/03/09 01:11:12;;;;;;;10.10;8.25;;;;;;;;;;4987262;28;20427;-73
2021/03/09 01:13:37;;;;;;;9.30;7.95;;;;;;;;;;5011647;28;20034;-74
2021/03/09 01:16:03;;;;;;;10.23;8.45;;;;;;;;;;5023708;28;20035;-74
2021/03/09 01:18:28;;;;;;;9.02;8.15;;;;;;;;;;5023645;28;20737;-74
2021/03/09 01:20:54;;;;;;;9.85;7.55;;;;;;;;;;5023541;28;20051;-74
2021/03/09 01:23:19;;;;;;;8.95;7.30;;;;;;;;;;5023726;28;20129;-74
2021/03/09 01:25:45;;;;;;;8.85;7.65;;;;;;;;;;4990670;28;20460;-74
2021/03/09 01:28:10;;;;;;;8.70;7.57;;;;;;;;;;4990434;28;20512;-74
2021/03/09 01:30:36;;;;;;;9.13;7.85;;;;;;;;;;4958397;28;20424;-74
2021/03/09 01:33:02;;;;;;;9.85;7.57;;;;;;;;;;5007179;28;20501;-74
2021/03/09 01:35:27;;;;;;;9.40;7.45;;;;;;;;;;4974840;28;20560;-74
2021/03/09 01:37:53;;;;;;;8.57;7.68;;;;;;;;;;5006967;28;20149;-74
2021/03/09 01:40:18;;;;;;;9.48;8.45;;;;;;;;;;5023446;28;20165;-74
2021/03/09 01:42:44;;;;;;;8.45;7.55;;;;;;;;;;5007100;28;20046;-74
2021/03/09 01:45:09;;;;;;;9.32;7.38;;;;;;;;;;5007319;28;20467;-74
2021/03/09 01:47:46;;;;;;;8.80;7.10;;;;;;;;;;5023510;28;20066;-74
2021/03/09 01:50:12;;;;;;;8.18;7.28;;;;;;;;;;5022063;28;20039;-74
2021/03/09 01:52:39;;;;;;;9.20;7.32;;;;;;;;;;5007077;28;20050;-74
2021/03/09 01:55:06;;;;;;;8.90;7.10;;;;;;;;;;5007049;28;20520;-74
2021/03/09 01:57:32;;;;;;;8.75;7.45;;;;;;;;;;5023277;28;20035;-74
2021/03/09 01:59:57;;;;;;;8.48;7.57;;;;;;;;;;5023307;28;20042;-74
2021/03/09 02:02:23;;;;;;;7.85;7.05;;;;;;;;;;5023340;28;20405;-74
2021/03/09 02:04:48;;;;;;;7.88;6.50;;;;;;;;;;5006922;28;20401;-74
2021/03/09 02:07:13;;;;;;;8.07;6.68;;;;;;;;;;5023356;28;20039;-74
2021/03/09 02:09:39;;;;;;;7.93;6.40;;;;;;;;;;5022946;28;20417;-75
2021/03/09 02:12:22;;;;;;;9.35;6.82;;;;;;;;;;4990831;28;20382;-75
2021/03/09 02:15:11;;;;;;;8.70;6.78;;;;;;;;;;5024680;28;20504;-74
2021/03/09 02:17:42;;;;;;;7.40;6.70;;;;;;;;;;5027460;28;20034;-75
2021/03/09 02:20:41;;;;;;;7.72;6.30;;;;;;;;;;5009637;28;20070;-75
2021/03/09 02:23:12;;;;;;;7.53;6.07;;;;;;;;;;5009916;28;20054;-75
2021/03/09 02:26:05;;;;;;;8.77;6.65;;;;;;;;;;5010508;28;20035;-75
2021/03/09 02:28:37;;;;;;;8.43;6.05;;;;;;;;;;5026657;28;20527;-75
2021/03/09 02:31:02;;;;;;;8.00;6.07;;;;;;;;;;4995278;28;20520;-75
2021/03/09 02:33:55;;;;;;;6.95;6.22;;;;;;;;;;4977704;28;20053;-75
2021/03/09 02:36:24;;;;;;;6.85;6.15;;;;;;;;;;4993213;28;20055;-75
2021/03/09 02:39:06;;;;;;;6.75;5.60;;;;;;;;;;5026328;28;20535;-75
2021/03/09 02:41:32;;;;;;;6.57;5.70;;;;;;;;;;4994005;28;20113;-75
2021/03/09 02:43:57;;;;;;;7.38;6.25;;;;;;;;;;4974000;28;20575;-75
2021/03/09 02:46:25;;;;;;;6.68;5.30;;;;;;;;;;4990315;28;20110;-75
2021/03/09 02:48:51;;;;;;;6.65;5.72;;;;;;;;;;5006087;28;20043;-75
2021/03/09 02:51:17;;;;;;;7.40;5.72;;;;;;;;;;4990147;28;20043;-75
2021/03/09 02:53:51;;;;;;;6.22;5.00;;;;;;;;;;4990229;28;20497;-75
2021/03/09 02:56:16;;;;;;;7.03;5.35;;;;;;;;;;5006765;28;20042;-75
2021/03/09 02:58:51;;;;;;;5.97;5.32;;;;;;;;;;5006453;28;20089;-75
2021/03/09 03:01:17;;;;;;;7.45;5.25;;;;;;;;;;5005534;28;20031;-75
2021/03/09 03:03:43;;;;;;;6.88;5.88;;;;;;;;;;5006388;28;20039;-76
2021/03/09 03:06:08;;;;;;;6.28;5.28;;;;;;;;;;4989865;28;20034;-75
2021/03/09 03:08:34;;;;;;;8.05;6.18;;;;;;;;;;4989414;28;20097;-75
2021/03/09 03:11:02;;;;;;;6.45;5.45;;;;;;;;;;5006039;28;20090;-76
2021/03/09 03:13:27;;;;;;;5.53;4.97;;;;;;;;;;5011843;28;20493;-75
2021/03/09 03:15:53;;;;;;;5.65;4.70;;;;;;;;;;4977049;28;20081;-75
2021/03/09 03:18:18;;;;;;;6.20;5.60;;;;;;;;;;5008803;28;20487;-75
2021/03/09 03:20:44;;;;;;;7.10;5.10;;;;;;;;;;4992338;28;20030;-75
2021/03/09 03:23:11;;;;;;;6.05;5.45;;;;;;;;;;5025635;28;20073;-75
2021/03/09 03:25:38;;;;;;;5.75;5.10;;;;;;;;;;5008806;28;20101;-76
2021/03/09 03:28:04;;;;;;;6.57;5.43;;;;;;;;;;5008953;28;20113;-76
2021/03/09 03:30:30;;;;;;;6.43;5.20;;;;;;;;;;4991863;28;20057;-76
2021/03/09 03:32:55;;;;;;;6.18;4.97;;;;;;;;;;5009081;28;20052;-75
2021/03/09 03:35:21;;;;;;;5.20;4.70;;;;;;;;;;4992766;28;20116;-76
2021/03/09 03:37:46;;;;;;;5.43;4.80;;;;;;;;;;5008594;28;20034;-76
2021/03/09 03:40:16;;;;;;;7.22;5.22;;;;;;;;;;5008787;28;20501;-76
2021/03/09 03:42:41;;;;;;;6.18;4.65;;;;;;;;;;4992561;28;20101;-76
2021/03/09 03:45:08;;;;;;;5.40;4.70;;;;;;;;;;5008817;28;20449;-76
2021/03/09 03:47:34;;;;;;;6.50;4.88;;;;;;;;;;5008840;28;20038;-76
2021/03/09 03:49:59;;;;;;;5.30;4.80;;;;;;;;;;5024366;28;20057;-76
2021/03/09 03:52:31;;;;;;;6.03;4.72;;;;;;;;;;5008550;28;20026;-76
2021/03/09 03:55:26;;;;;;;5.75;5.15;;;;;;;;;;5025212;28;20038;-76
2021/03/09 03:57:51;;;;;;;6.00;4.65;;;;;;;;;;4992211;28;20531;-76
2021/03/09 04:00:18;;;;;;;5.78;4.63;;;;;;;;;;5008776;28;20074;-75
2021/03/09 04:02:44;;;;;;;5.15;4.43;;;;;;;;;;5024998;28;20038;-75
2021/03/09 04:05:10;;;;;;;5.00;4.13;;;;;;;;;;5008032;28;20047;-75
2021/03/09 04:07:36;;;;;;;5.47;4.40;;;;;;;;;;5008082;28;20105;-75
2021/03/09 04:10:02;;;;;;;4.60;4.05;;;;;;;;;;5024783;28;20038;-75
2021/03/09 04:12:28;;;;;;;6.45;4.30;;;;;;;;;;5008447;28;20041;-75
2021/03/09 04:14:55;;;;;;;6.13;4.80;;;;;;;;;;5023028;28;20042;-75
2021/03/09 04:17:21;;;;;;;4.70;3.92;;;;;;;;;;4993064;28;20042;-75
2021/03/09 04:19:46;;;;;;;6.38;4.82;;;;;;;;;;5023688;28;20497;-75
2021/03/09 04:22:12;;;;;;;4.95;4.10;;;;;;;;;;4975248;28;20045;-75
2021/03/09 04:24:38;;;;;;;5.57;4.25;;;;;;;;;;5008387;28;20038;-75
2021/03/09 04:27:03;;;;;;;5.97;5.18;;;;;;;;;;5024414;28;20405;-75
2021/03/09 04:29:29;;;;;;;5.82;5.20;;;;;;;;;;4991448;28;20045;-75
2021/03/09 04:31:54;;;;;;;4.78;3.75;;;;;;;;;;4991783;28;20057;-75
2021/03/09 04:34:20;;;;;;;5.78;4.45;;;;;;;;;;4991081;28;20050;-75
2021/03/09 04:36:45;;;;;;;5.63;4.55;;;;;;;;;;4990839;28;20413;-75
2021/03/09 04:39:11;;;;;;;6.28;4.25;;;;;;;;;;4991590;28;20041;-75
2021/03/09 04:41:36;;;;;;;4.50;3.53;;;;;;;;;;5007944;28;20069;-75
2021/03/09 04:44:02;;;;;;;8.05;4.80;;;;;;;;;;4988185;28;20497;-75
2021/03/09 04:46:28;;;;;;;5.72;4.50;;;;;;;;;;4988043;28;20023;-75
2021/03/09 04:48:53;;;;;;;5.90;4.43;;;;;;;;;;5003730;28;20042;-75
2021/03/09 04:51:19;;;;;;;7.95;6.03;;;;;;;;;;4987947;28;20484;-75
2021/03/09 04:53:45;;;;;;;6.75;5.10;;;;;;;;;;5004274;28;20049;-75
2021/03/09 04:56:10;;;;;;;5.28;4.35;;;;;;;;;;5004251;28;20039;-75
2021/03/09 04:58:36;;;;;;;5.78;4.28;;;;;;;;;;4987883;28;20050;-75
2021/03/09 05:01:01;;;;;;;4.82;4.15;;;;;;;;;;5004300;28;20448;-74
2021/03/09 05:03:26;;;;;;;5.05;4.43;;;;;;;;;;4987476;28;20034;-75
2021/03/09 05:05:52;;;;;;;5.43;4.35;;;;;;;;;;4987725;28;20035;-75
2021/03/09 05:08:18;;;;;;;5.63;4.43;;;;;;;;;;5004045;28;20070;-75
2021/03/09 05:10:43;;;;;;;5.90;4.57;;;;;;;;;;5003980;28;20043;-75
2021/03/09 05:13:09;;;;;;;5.38;4.38;;;;;;;;;;4991624;28;20108;-75
2021/03/09 05:15:34;;;;;;;6.97;5.20;;;;;;;;;;4975187;28;20105;-75
2021/03/09 05:18:00;;;;;;;6.60;5.00;;;;;;;;;;4990797;28;20046;-75
2021/03/09 05:20:25;;;;;;;5.65;4.53;;;;;;;;;;4974380;28;20046;-75
2021/03/09 05:22:51;;;;;;;4.70;4.13;;;;;;;;;;4990751;28;20125;-75
2021/03/09 05:25:16;;;;;;;5.57;4.47;;;;;;;;;;5007661;28;20034;-75
2021/03/09 05:27:42;;;;;;;5.03;4.13;;;;;;;;;;5023754;28;20044;-75
2021/03/09 05:30:09;;;;;;;5.38;4.43;;;;;;;;;;5006171;28;20062;-74
2021/03/09 05:32:34;;;;;;;4.57;4.13;;;;;;;;;;5007200;28;20042;-75
2021/03/09 05:35:00;;;;;;;6.57;5.00;;;;;;;;;;4992422;28;20054;-75
2021/03/09 05:37:25;;;;;;;6.57;4.30;;;;;;;;;;5023334;28;20136;-75
2021/03/09 05:39:51;;;;;;;5.60;4.50;;;;;;;;;;5007119;28;20390;-75
2021/03/09 05:42:16;;;;;;;4.40;4.00;;;;;;;;;;5007675;28;20049;-75
2021/03/09 05:44:42;;;;;;;7.35;5.50;;;;;;;;;;5007118;28;20497;-74
2021/03/09 05:47:07;;;;;;;5.95;4.47;;;;;;;;;;5023296;28;20042;-75
2021/03/09 05:49:32;;;;;;;7.38;4.47;;;;;;;;;;5024429;28;20047;-74
2021/03/09 05:51:59;;;;;;;6.25;5.00;;;;;;;;;;5008578;28;20046;-74
2021/03/09 05:54:25;;;;;;;6.00;4.95;;;;;;;;;;5010193;28;20034;-75
2021/03/09 05:56:50;;;;;;;6.03;4.32;;;;;;;;;;4994579;28;20425;-75
2021/03/09 05:59:16;;;;;;;5.38;4.78;;;;;;;;;;5027588;28;20093;-75
2021/03/09 06:01:42;;;;;;;7.30;5.20;;;;;;;;;;5010669;28;20038;-75
2021/03/09 06:04:08;;;;;;;6.03;4.47;;;;;;;;;;4995555;28;20512;-75
2021/03/09 06:06:33;;;;;;;6.88;5.40;;;;;;;;;;5026777;28;20416;-75
2021/03/09 06:08:59;;;;;;;12.65;5.40;;;;;;;;;;5027196;28;20511;-75
2021/03/09 06:11:25;;;;;;;8.88;5.15;;;;;;;;;;5010359;28;20046;-75
2021/03/09 06:13:50;;;;;;;6.10;4.88;;;;;;;;;;5007142;28;20046;-75
2021/03/09 06:16:16;;;;;;;7.93;5.72;;;;;;;;;;5010227;28;20505;-75
2021/03/09 06:18:57;;;;;;;7.53;5.38;;;;;;;;;;5009869;28;20034;-75
2021/03/09 06:21:25;;;;;;;9.77;4.80;;;;;;;;;;5008854;28;20050;-75
2021/03/09 06:23:51;;;;;;;11.50;4.88;;;;;;;;;;4994369;28;20074;-75
2021/03/09 06:26:32;;;;;;;8.10;4.65;;;;;;;;;;5010354;28;20493;-75
2021/03/09 06:29:15;;;;;;;9.23;4.97;;;;;;;;;;4995170;28;20038;-75
2021/03/09 06:31:49;;;;;;;9.55;5.55;;;;;;;;;;5026615;28;20273;-75
2021/03/09 06:34:33;;;;;;;13.32;5.63;;;;;;;;;;4995200;28;20073;-75
2021/03/09 06:37:21;;;;;;;11.77;4.97;;;;;;;;;;5010878;28;20038;-75
2021/03/09 06:40:02;;;;;;;10.77;6.35;;;;;;;;;;4993759;28;20046;-75
2021/03/09 06:42:30;;;;;;;7.07;4.75;;;;;;;;;;5009764;28;20023;-75
2021/03/09 06:45:12;;;;;;;7.95;5.70;;;;;;;;;;4993588;28;20039;-75
2021/03/09 06:47:44;;;;;;;10.20;4.80;;;;;;;;;;4977334;28;20031;-76
2021/03/09 06:50:14;;;;;;;12.25;8.90;;;;;;;;;;5009186;28;20053;-75
2021/03/09 06:52:41;;;;;;;25.25;20.02;;;;;;;;;;5042573;28;20050;-75
2021/03/09 06:55:08;;;;;;;28.02;20.30;;;;;;;;;;5009957;28;20125;-75
2021/03/09 06:57:33;;;;;;;28.77;21.05;;;;;;;;;;5009679;28;20444;-75
2021/03/09 06:59:59;;;;;;;29.02;21.15;;;;;;;;;;4992340;28;20049;-76
2021/03/09 07:02:28;;;;;;;30.20;19.73;;;;;;;;;;5009301;28;20038;-75
2021/03/09 07:05:06;;;;;;;29.75;18.25;;;;;;;;;;5023592;28;20065;-75
2021/03/09 07:07:39;;;;;;;28.52;17.58;;;;;;;;;;5023312;28;20509;-75
2021/03/09 07:10:04;;;;;;;24.63;18.02;;;;;;;;;;4990733;28;20045;-75
2021/03/09 07:12:30;;;;;;;22.85;16.27;;;;;;;;;;5042598;28;20504;-75
2021/03/09 07:14:55;;;;;;;20.02;15.93;;;;;;;;;;5008731;28;20089;-75
2021/03/09 07:17:23;;;;;;;21.90;15.18;;;;;;;;;;4992688;28;20034;-75
2021/03/09 07:19:49;;;;;;;22.30;14.55;;;;;;;;;;4992542;28;20555;-76
2021/03/09 07:22:16;;;;;;;19.30;15.15;;;;;;;;;;4976698;28;20054;-75
2021/03/09 07:25:14;;;;;;;20.20;13.88;;;;;;;;;;4993145;28;20472;-75
2021/03/09 07:27:42;;;;;;;17.38;13.85;;;;;;;;;;4992867;28;20034;-76
2021/03/09 07:30:09;;;;;;;21.80;13.05;;;;;;;;;;4992920;28;20046;-76
2021/03/09 07:32:37;;;;;;;18.30;13.25;;;;;;;;;;5008763;28;20493;-75
2021/03/09 07:35:02;;;;;;;16.38;12.15;;;;;;;;;;5009289;28;20041;-75
2021/03/09 07:37:28;;;;;;;18.40;12.52;;;;;;;;;;5009082;28;20397;-75
2021/03/09 07:39:53;;;;;;;14.80;11.70;;;;;;;;;;5008914;28;20496;-75
2021/03/09 07:42:19;;;;;;;17.75;11.65;;;;;;;;;;4975902;28;20046;-75
2021/03/09 07:44:45;;;;;;;14.45;11.35;;;;;;;;;;4989110;28;20395;-75
2021/03/09 07:47:11;;;;;;;14.85;11.27;;;;;;;;;;4973471;28;20428;-75
2021/03/09 07:49:37;;;;;;;15.30;10.95;;;;;;;;;;5004807;28;20046;-75
2021/03/09 07:52:13;;;;;;;18.17;10.73;;;;;;;;;;4988781;28;20065;-74
2021/03/09 07:54:39;;;;;;;19.65;11.43;;;;;;;;;;5005750;28;20109;-75
2021/03/09 07:57:17;;;;;;;17.70;10.85;;;;;;;;;;4956246;28;20039;-73
2021/03/09 07:59:59;;;;;;;17.10;11.38;;;;;;;;;;5005349;28;20034;-74
2021/03/09 08:02:41;;;;;;;18.92;9.73;;;;;;;;;;4988806;28;20035;-74
2021/03/09 08:05:17;;;;;;;18.10;9.75;;;;;;;;;;4972654;28;20030;-73
2021/03/09 08:07:53;;;;;;;18.27;10.63;;;;;;;;;;4988997;28;20437;-73
2021/03/09 08:10:33;;;;;;;17.63;9.82;;;;;;;;;;4971807;28;20057;-73
2021/03/09 08:13:05;;;;;;;14.13;9.90;;;;;;;;;;4990733;28;20031;-73
2021/03/09 08:15:30;;;;;;;24.30;11.50;;;;;;;;;;4995361;28;20512;-74
2021/03/09 08:17:56;;;;;;;24.73;10.85;;;;;;;;;;5008041;28;20072;-74
2021/03/09 08:20:48;;;;;;;22.58;10.40;;;;;;;;;;4974918;28;20460;-74
2021/03/09 08:23:32;;;;;;;21.38;8.88;;;;;;;;;;4972505;28;20064;-74
2021/03/09 08:26:13;;;;;;;21.08;10.48;;;;;;;;;;5024738;28;20404;-74
2021/03/09 08:28:39;;;;;;;16.42;9.07;;;;;;;;;;5007389;28;20428;-74
2021/03/09 08:31:11;;;;;;;21.27;8.68;;;;;;;;;;4975308;28;20096;-73
2021/03/09 08:33:37;;;;;;;21.47;8.63;;;;;;;;;;5008630;28;20624;-74
2021/03/09 08:36:29;;;;;;;21.52;8.38;;;;;;;;;;5007773;28;20081;-73
2021/03/09 08:41:49;;;;;;;19.30;8.60;;;;;;;;;;4992154;28;20085;-74
2021/03/09 08:44:20;;;;;;;29.60;10.75;;;;;;;;;;5007333;28;20385;-74
2021/03/09 08:47:09;;;;;;;18.52;8.95;;;;;;;;;;4992664;28;20038;-75
2021/03/09 08:49:37;;;;;;;18.13;10.35;;;;;;;;;;4990911;28;20092;-74
2021/03/09 08:52:38;;;;;;;20.45;8.13;;;;;;;;;;4992336;28;20038;-74
2021/03/09 08:55:05;;;;;;;21.70;7.63;;;;;;;;;;4974519;28;20505;-74
2021/03/09 08:57:30;;;;;;;16.42;9.05;;;;;;;;;;4972246;28;20037;-74
2021/03/09 09:00:06;;;;;;;16.33;9.07;;;;;;;;;;4960171;28;20176;-74
2021/03/09 09:02:32;;;;;;;18.88;10.20;;;;;;;;;;5023761;28;20026;-74
2021/03/09 09:05:02;;;;;;;18.40;8.68;;;;;;;;;;5007894;28;20052;-74
2021/03/09 09:07:36;;;;;;;13.63;8.35;;;;;;;;;;5023510;28;20496;-73
2021/03/09 09:10:12;;;;;;;19.98;8.45;;;;;;;;;;4991848;28;20508;-73
2021/03/09 09:12:38;;;;;;;15.68;9.02;;;;;;;;;;5023979;28;20109;-74
2021/03/09 09:15:04;;;;;;;15.73;9.07;;;;;;;;;;5004509;28;20036;-73
2021/03/09 09:17:30;;;;;;;14.93;8.35;;;;;;;;;;4992454;28;20420;-73
2021/03/09 09:19:56;;;;;;;18.27;9.00;;;;;;;;;;5019869;28;20058;-73
2021/03/09 09:22:26;;;;;;;15.65;7.97;;;;;;;;;;5005228;28;20090;-73
2021/03/09 09:24:58;;;;;;;14.50;8.38;;;;;;;;;;5024457;28;20515;-73
2021/03/09 09:27:23;;;;;;;;;;;;;;;;;;5008778;28;20038;-73
2021/03/09 09:29:53;;;;;;;16.60;7.35;;;;;;;;;;5008276;28;19921;-73
2021/03/09 09:32:19;;;;;;;12.85;6.47;;;;;;;;;;5007872;28;20130;-73
2021/03/09 09:34:44;;;;;;;11.90;7.05;;;;;;;;;;5007922;28;20042;-72
2021/03/09 09:37:14;;;;;;;12.85;8.48;;;;;;;;;;4991643;28;20046;-72
2021/03/09 09:39:40;;;;;;;11.52;7.57;;;;;;;;;;5010717;28;20054;-74
2021/03/09 09:42:16;;;;;;;13.38;6.78;;;;;;;;;;4994714;28;20053;-73
2021/03/09 09:44:41;;;;;;;12.63;6.97;;;;;;;;;;4991468;28;20452;-73
2021/03/09 09:47:07;;;;;;;16.08;7.72;;;;;;;;;;5007955;28;20043;-73
2021/03/09 09:49:33;;;;;;;16.95;7.85;;;;;;;;;;5007170;28;20390;-72
2021/03/09 09:51:58;;;;;;;20.63;8.52;;;;;;;;;;5007563;28;20520;-73
2021/03/09 09:54:24;;;;;;;21.55;8.15;;;;;;;;;;5007328;28;20030;-73
2021/03/09 09:56:49;;;;;;;14.82;7.82;;;;;;;;;;5015738;28;20042;-73
2021/03/09 09:59:25;;;;;;;29.50;13.88;;;;;;;;;;4994571;28;20516;-72
2021/03/09 10:01:50;;;;;;;19.65;11.38;;;;;;;;;;4994364;28;20034;-73
2021/03/09 10:04:16;;;;;;;19.98;10.93;;;;;;;;;;5010466;28;20080;-73
2021/03/09 10:06:51;;;;;;;22.10;9.68;;;;;;;;;;5010837;28;20034;-72
2021/03/09 10:09:24;;;;;;;20.40;10.13;;;;;;;;;;4993964;28;20045;-73
2021/03/09 10:11:53;;;;;;;14.85;10.30;;;;;;;;;;5009798;28;20042;-73
2021/03/09 10:14:20;;;;;;;18.42;9.48;;;;;;;;;;5010300;28;20040;-73
2021/03/09 10:16:46;;;;;;;15.02;9.90;;;;;;;;;;5009348;28;20047;-72
2021/03/09 10:19:17;;;;;;;17.85;9.85;;;;;;;;;;4977847;28;20121;-73
2021/03/09 10:21:44;;;;;;;17.80;10.60;;;;;;;;;;4978281;28;20057;-73
2021/03/09 10:24:18;;;;;;;25.98;10.80;;;;;;;;;;4961659;28;20038;-73
2021/03/09 10:26:46;;;;;;;19.80;11.13;;;;;;;;;;4979095;28;20031;-73
2021/03/09 10:29:13;;;;;;;20.40;10.32;;;;;;;;;;4977795;28;20041;-73
2021/03/09 10:31:59;;;;;;;15.20;10.38;;;;;;;;;;4995080;28;20077;-73
2021/03/09 10:34:38;;;;;;;17.33;9.60;;;;;;;;;;4992558;28;20058;-73
2021/03/09 10:37:03;;;;;;;17.17;10.10;;;;;;;;;;4977496;28;20042;-74
2021/03/09 10:39:30;;;;;;;16.67;10.57;;;;;;;;;;4977204;28;20089;-74
2021/03/09 10:41:56;;;;;;;16.80;9.75;;;;;;;;;;5010352;28;20041;-72
2021/03/09 10:44:35;;;;;;;19.70;10.35;;;;;;;;;;5026470;28;20038;-73
2021/03/09 10:47:02;;;;;;;15.32;10.38;;;;;;;;;;5025904;28;20046;-73
2021/03/09 10:49:28;;;;;;;46.85;14.50;;;;;;;;;;4974842;28;20034;-73
2021/03/09 10:52:05;;;;;;;21.45;9.95;;;;;;;;;;4990834;28;20049;-74
2021/03/09 10:54:30;;;;;;;12.00;8.43;;;;;;;;;;5007542;28;20109;-73
2021/03/09 10:56:56;;;;;;;17.35;8.80;;;;;;;;;;5010070;28;20620;-73
2021/03/09 10:59:22;;;;;;;15.82;8.77;;;;;;;;;;5009717;28;20401;-73
2021/03/09 11:01:47;;;;;;;13.50;7.93;;;;;;;;;;4993521;28;20049;-73
2021/03/09 11:04:13;;;;;;;14.70;9.05;;;;;;;;;;5025747;28;20524;-73
2021/03/09 11:06:38;;;;;;;13.40;8.05;;;;;;;;;;5009521;28;20157;-73
2021/03/09 11:09:04;;;;;;;17.50;8.20;;;;;;;;;;5009149;28;20034;-73
2021/03/09 11:11:29;;;;;;;15.20;8.38;;;;;;;;;;4993257;28;20687;-73
2021/03/09 11:13:55;;;;;;;18.48;8.45;;;;;;;;;;5025526;28;20386;-73
2021/03/09 11:16:20;;;;;;;16.13;8.50;;;;;;;;;;5009109;28;20401;-73
2021/03/09 11:18:46;;;;;;;14.27;9.55;;;;;;;;;;4992829;28;20656;-74
2021/03/09 11:21:11;;;;;;;15.52;9.93;;;;;;;;;;5008683;28;20424;-73
2021/03/09 11:23:37;;;;;;;16.23;8.60;;;;;;;;;;5025326;28;20401;-73
2021/03/09 11:26:02;;;;;;;13.68;8.48;;;;;;;;;;5009340;28;20417;-73
2021/03/09 11:28:28;;;;;;;17.92;9.68;;;;;;;;;;5009265;28;20042;-73
2021/03/09 11:30:53;;;;;;;15.98;9.52;;;;;;;;;;4992378;28;20042;-73
2021/03/09 11:33:18;;;;;;;13.95;8.93;;;;;;;;;;5008819;28;20457;-73
2021/03/09 11:35:44;;;;;;;14.30;9.85;;;;;;;;;;5008559;28;20386;-73
2021/03/09 11:38:09;;;;;;;12.52;7.85;;;;;;;;;;5009288;28;20064;-73
2021/03/09 11:40:35;;;;;;;12.70;8.95;;;;;;;;;;4993619;28;20053;-72
2021/03/09 11:43:01;;;;;;;12.30;7.97;;;;;;;;;;4989674;28;20035;-73
2021/03/09 11:45:26;;;;;;;11.85;8.32;;;;;;;;;;5005512;28;20509;-73
2021/03/09 11:47:52;;;;;;;11.63;8.13;;;;;;;;;;4989198;28;20501;-73
2021/03/09 11:50:17;;;;;;;14.18;7.80;;;;;;;;;;5004743;28;20050;-73
2021/03/09 11:52:43;;;;;;;9.85;7.47;;;;;;;;;;4992774;28;20081;-73
2021/03/09 11:55:09;;;;;;;13.18;7.28;;;;;;;;;;4997110;28;20114;-73
2021/03/09 11:57:34;;;;;;;11.40;7.47;;;;;;;;;;4975074;28;20031;-72
2021/03/09 12:00:00;;;;;;;11.65;7.30;;;;;;;;;;4981235;28;20092;-73
2021/03/09 12:02:26;;;;;;;10.73;7.05;;;;;;;;;;4964230;28;20409;-73
2021/03/09 12:04:51;;;;;;;10.48;7.07;;;;;;;;;;4975592;28;20113;-73
2021/03/09 12:07:18;;;;;;;11.00;7.38;;;;;;;;;;4959491;28;20505;-73
2021/03/09 12:09:43;;;;;;;13.43;7.07;;;;;;;;;;5014583;28;20122;-73
2021/03/09 12:12:09;;;;;;;14.70;8.52;;;;;;;;;;4988706;28;20045;-73
2021/03/09 12:14:34;;;;;;;16.70;10.95;;;;;;;;;;4981852;28;20775;-73
2021/03/09 12:17:00;;;;;;;16.23;10.93;;;;;;;;;;5008419;28;20401;-73
2021/03/09 12:19:27;;;;;;;16.40;9.35;;;;;;;;;;4974145;28;20045;-73
2021/03/09 12:21:53;;;;;;;11.98;9.10;;;;;;;;;;5024356;28;20050;-73
2021/03/09 12:24:18;;;;;;;15.73;10.48;;;;;;;;;;5024336;28;20504;-73
2021/03/09 12:26:43;;;;;;;12.10;8.52;;;;;;;;;;5006446;28;20420;-73
2021/03/09 12:29:09;;;;;;;18.35;8.73;;;;;;;;;;5023679;28;20046;-72
2021/03/09 12:31:34;;;;;;;14.00;7.45;;;;;;;;;;5024333;28;20034;-72
2021/03/09 12:34:00;;;;;;;15.80;8.13;;;;;;;;;;5023602;28;20060;-72
2021/03/09 12:36:25;;;;;;;12.45;7.97;;;;;;;;;;5008193;28;20390;-72
2021/03/09 12:38:51;;;;;;;12.82;7.20;;;;;;;;;;5019323;28;20101;-72
2021/03/09 12:41:16;;;;;;;12.57;7.18;;;;;;;;;;4971880;28;20035;-72
2021/03/09 12:43:42;;;;;;;14.02;7.20;;;;;;;;;;4991038;28;20458;-72
2021/03/09 12:46:07;;;;;;;12.82;7.10;;;;;;;;;;4991819;28;20030;-72
2021/03/09 12:48:33;;;;;;;12.65;7.50;;;;;;;;;;5023217;28;20042;-72
2021/03/09 12:50:58;;;;;;;9.73;6.45;;;;;;;;;;5007108;28;20417;-72
2021/03/09 12:53:23;;;;;;;14.68;7.45;;;;;;;;;;5007203;28;20077;-72
2021/03/09 12:55:49;;;;;;;19.10;6.57;;;;;;;;;;4986741;28;20035;-72
2021/03/09 12:58:14;;;;;;;12.85;6.50;;;;;;;;;;5004773;28;20121;-72
2021/03/09 13:00:40;;;;;;;10.98;6.50;;;;;;;;;;5017595;28;20042;-72
2021/03/09 13:03:05;;;;;;;12.45;6.07;;;;;;;;;;5006163;28;20046;-72
2021/03/09 13:05:31;;;;;;;13.85;6.13;;;;;;;;;;5002881;28;20113;-72
2021/03/09 13:07:56;;;;;;;9.60;5.97;;;;;;;;;;5004115;28;20441;-72
2021/03/09 13:10:21;;;;;;;10.23;6.30;;;;;;;;;;5003498;28;20034;-72
2021/03/09 13:12:47;;;;;;;11.40;6.18;;;;;;;;;;5004686;28;20398;-72
2021/03/09 13:15:12;;;;;;;7.82;5.50;;;;;;;;;;5022692;28;20369;-72
2021/03/09 13:17:38;;;;;;;14.77;6.13;;;;;;;;;;5007505;28;20045;-72
2021/03/09 13:20:08;;;;;;;10.45;6.22;;;;;;;;;;4990282;28;20097;-72
2021/03/09 13:22:33;;;;;;;10.15;6.30;;;;;;;;;;5005017;28;20039;-72
2021/03/09 13:24:59;;;;;;;9.75;6.18;;;;;;;;;;5014462;28;20066;-72
2021/03/09 13:27:26;;;;;;;13.15;6.78;;;;;;;;;;4996232;28;20416;-72
2021/03/09 13:29:52;;;;;;;14.57;7.13;;;;;;;;;;5006825;28;20031;-72
2021/03/09 13:32:17;;;;;;;10.55;6.00;;;;;;;;;;4990256;28;20050;-72
2021/03/09 13:34:42;;;;;;;11.20;6.38;;;;;;;;;;4939576;28;20109;-72
2021/03/09 13:37:08;;;;;;;9.68;5.97;;;;;;;;;;5002685;28;20521;-72
2021/03/09 13:39:33;;;;;;;9.82;5.47;;;;;;;;;;5006766;28;20419;-72
2021/03/09 13:41:59;;;;;;;10.45;6.32;;;;;;;;;;5023352;28;20528;-72
2021/03/09 13:44:24;;;;;;;9.43;5.72;;;;;;;;;;5006789;28;20042;-72
2021/03/09 13:46:50;;;;;;;10.73;5.80;;;;;;;;;;4982723;28;20133;-72
2021/03/09 13:49:15;;;;;;;9.05;5.35;;;;;;;;;;4984406;28;20034;-72
2021/03/09 13:51:41;;;;;;;8.65;5.07;;;;;;;;;;5023394;28;20038;-72
2021/03/09 13:54:06;;;;;;;10.95;5.88;;;;;;;;;;5023393;28;20034;-72
2021/03/09 13:56:32;;;;;;;10.57;5.53;;;;;;;;;;5007054;28;20085;-72
2021/03/09 13:58:58;;;;;;;10.77;5.20;;;;;;;;;;5023190;28;20504;-72
2021/03/09 14:01:23;;;;;;;8.32;5.28;;;;;;;;;;5006639;28;20405;-72
2021/03/09 14:03:49;;;;;;;10.43;6.15;;;;;;;;;;5023198;28;20062;-72
2021/03/09 14:06:14;;;;;;;10.45;5.63;;;;;;;;;;5023458;28;20492;-72
2021/03/09 14:08:40;;;;;;;8.85;5.88;;;;;;;;;;4992313;28;20121;-72
2021/03/09 14:11:05;;;;;;;8.95;5.18;;;;;;;;;;4994967;28;20038;-72
2021/03/09 14:13:31;;;;;;;10.57;5.25;;;;;;;;;;5023492;28;20081;-72
2021/03/09 14:15:57;;;;;;;8.45;5.47;;;;;;;;;;5007040;28;20042;-72
2021/03/09 14:18:22;;;;;;;10.32;6.38;;;;;;;;;;4990760;28;20155;-72
2021/03/09 14:20:47;;;;;;;9.45;6.72;;;;;;;;;;5006718;28;20043;-72
2021/03/09 14:23:13;;;;;;;10.10;6.20;;;;;;;;;;5007025;28;20043;-71
2021/03/09 14:25:38;;;;;;;14.70;6.97;;;;;;;;;;5007078;28;20449;-71
2021/03/09 14:28:04;;;;;;;12.63;7.07;;;;;;;;;;4993576;28;20034;-72
2021/03/09 14:30:29;;;;;;;10.07;6.57;;;;;;;;;;4973971;28;20042;-72
2021/03/09 14:32:55;;;;;;;10.43;6.75;;;;;;;;;;4974303;28;20046;-72
2021/03/09 14:35:21;;;;;;;9.30;5.93;;;;;;;;;;4990666;28;20445;-72
2021/03/09 14:37:47;;;;;;;7.03;5.68;;;;;;;;;;4990378;28;20035;-71
2021/03/09 14:40:15;;;;;;;8.32;5.40;;;;;;;;;;5020227;28;20044;-71